Time;durP1;ratioP1;P1;durP2;ratioP2;P2;SDS_P1;SDS_P2;PMS_P1;PMS_P2;Temp;Humidity;BMP_temperature;BMP_pressure;BME280_temperature;BME280_humidity;BME280_pressure;Samples;Min_cycle;Max_cycle;Signal;HPM_P1;HPM_P2
2022/12/02 00:01:42;;;;;;;48.55;17.60;;;;;;;;;;5033158;28;20536;-86
2022/12/02 00:04:22;;;;;;;54.67;17.33;;;;;;;;;;5033157;28;20016;-86
2022/12/02 00:06:48;;;;;;;50.58;17.40;;;;;;;;;;5050071;28;20091;-86
2022/12/02 00:09:28;;;;;;;51.20;17.73;;;;;;;;;;5033063;28;20025;-87
2022/12/02 00:11:53;;;;;;;51.38;17.98;;;;;;;;;;5033007;28;20031;-87
2022/12/02 00:14:23;;;;;;;51.70;19.13;;;;;;;;;;5032196;28;20108;-87
2022/12/02 00:16:49;;;;;;;59.08;18.45;;;;;;;;;;5032836;28;20060;-87
2022/12/02 00:19:14;;;;;;;54.13;18.08;;;;;;;;;;5032895;28;20445;-86
2022/12/02 00:21:39;;;;;;;54.70;19.00;;;;;;;;;;5034026;28;20024;-87
2022/12/02 00:24:04;;;;;;;51.33;18.60;;;;;;;;;;5034175;28;20124;-86
2022/12/02 00:26:30;;;;;;;59.35;18.17;;;;;;;;;;5032831;28;20037;-86
2022/12/02 00:28:55;;;;;;;57.25;18.98;;;;;;;;;;5034149;28;20048;-86
2022/12/02 00:31:20;;;;;;;54.25;19.20;;;;;;;;;;5018555;28;20022;-86
2022/12/02 00:33:45;;;;;;;53.15;17.42;;;;;;;;;;5032213;28;20024;-87
2022/12/02 00:36:10;;;;;;;52.67;18.98;;;;;;;;;;5032764;28;20069;-86
2022/12/02 00:38:36;;;;;;;50.83;18.17;;;;;;;;;;5033465;28;20465;-86
2022/12/02 00:41:01;;;;;;;54.15;19.05;;;;;;;;;;5033619;28;20028;-87
2022/12/02 00:48:54;;;;;;;65.32;20.75;;;;;;;;;;5033905;28;20024;-86
2022/12/02 00:51:19;;;;;;;58.50;19.67;;;;;;;;;;5033432;28;20026;-86
2022/12/02 00:53:44;;;;;;;58.55;20.50;;;;;;;;;;5025239;28;20287;-87
2022/12/02 00:56:09;;;;;;;61.78;20.77;;;;;;;;;;5030521;28;20018;-86
2022/12/02 00:58:35;;;;;;;57.57;19.67;;;;;;;;;;5033306;28;20449;-86
2022/12/02 01:01:00;;;;;;;57.93;20.33;;;;;;;;;;5033755;28;20063;-86
2022/12/02 01:03:25;;;;;;;64.97;20.15;;;;;;;;;;5033500;28;20067;-85
2022/12/02 01:05:50;;;;;;;59.67;21.67;;;;;;;;;;5032323;28;20503;-86
2022/12/02 01:08:15;;;;;;;60.28;19.25;;;;;;;;;;5032106;28;20039;-86
2022/12/02 01:10:41;;;;;;;55.80;19.27;;;;;;;;;;5032091;28;20029;-86
2022/12/02 01:13:06;;;;;;;56.72;20.15;;;;;;;;;;5031084;28;20108;-87
2022/12/02 01:15:31;;;;;;;61.33;22.02;;;;;;;;;;5031833;28;20033;-86
2022/12/02 01:17:56;;;;;;;57.35;20.65;;;;;;;;;;5033103;28;20029;-87
2022/12/02 01:20:21;;;;;;;60.30;20.23;;;;;;;;;;5032244;28;20112;-87
2022/12/02 01:22:47;;;;;;;56.53;19.98;;;;;;;;;;5031753;28;20476;-86
2022/12/02 01:25:12;;;;;;;58.60;20.50;;;;;;;;;;5033260;28;20017;-87
2022/12/02 01:27:37;;;;;;;56.80;20.13;;;;;;;;;;5031429;28;20018;-87
2022/12/02 01:30:02;;;;;;;60.67;19.45;;;;;;;;;;5028300;28;20484;-86
2022/12/02 01:32:28;;;;;;;61.80;21.48;;;;;;;;;;5020547;28;20491;-87
2022/12/02 01:34:53;;;;;;;58.80;20.65;;;;;;;;;;5032913;28;20017;-86
2022/12/02 01:37:18;;;;;;;74.15;22.35;;;;;;;;;;5032808;28;20519;-87
2022/12/02 01:39:43;;;;;;;58.65;19.83;;;;;;;;;;5031558;28;20052;-86
2022/12/02 01:42:09;;;;;;;63.53;21.42;;;;;;;;;;5031160;28;20013;-86
2022/12/02 01:44:34;;;;;;;69.25;23.33;;;;;;;;;;5032697;28;20113;-87
2022/12/02 01:47:00;;;;;;;60.92;20.08;;;;;;;;;;5028862;28;20075;-87
2022/12/02 01:49:25;;;;;;;68.97;21.50;;;;;;;;;;5031303;28;20033;-87
2022/12/02 01:51:50;;;;;;;72.60;22.55;;;;;;;;;;5028770;28;20030;-86
2022/12/02 01:54:16;;;;;;;67.60;21.63;;;;;;;;;;5029393;28;20377;-86
2022/12/02 01:56:41;;;;;;;73.30;22.42;;;;;;;;;;5031080;28;20029;-86
2022/12/02 01:59:08;;;;;;;70.70;21.65;;;;;;;;;;5030993;28;20017;-87
2022/12/02 02:01:33;;;;;;;71.53;21.67;;;;;;;;;;5031270;28;20021;-87
2022/12/02 02:03:59;;;;;;;72.90;22.17;;;;;;;;;;5030945;28;20037;-86
2022/12/02 02:06:25;;;;;;;76.22;23.85;;;;;;;;;;5031307;28;20523;-86
2022/12/02 02:08:52;;;;;;;69.45;23.90;;;;;;;;;;5030889;28;20064;-86
2022/12/02 02:11:17;;;;;;;73.57;22.70;;;;;;;;;;5030200;28;20025;-87
2022/12/02 02:13:42;;;;;;;72.03;22.92;;;;;;;;;;5031058;28;20064;-87
2022/12/02 02:16:07;;;;;;;75.00;23.70;;;;;;;;;;5030660;28;20073;-87
2022/12/02 02:18:33;;;;;;;76.72;23.15;;;;;;;;;;5030882;28;20393;-86
2022/12/02 02:20:59;;;;;;;78.10;23.83;;;;;;;;;;5030815;28;20025;-87
2022/12/02 02:23:25;;;;;;;81.10;22.88;;;;;;;;;;5030906;28;20049;-86
2022/12/02 02:25:52;;;;;;;77.28;24.67;;;;;;;;;;5030712;28;20049;-86
2022/12/02 02:28:17;;;;;;;77.25;24.45;;;;;;;;;;5030800;28;20029;-87
2022/12/02 02:30:43;;;;;;;75.20;24.63;;;;;;;;;;5023947;28;20097;-86
2022/12/02 02:33:10;;;;;;;75.43;23.63;;;;;;;;;;5032664;28;20144;-87
2022/12/02 02:35:36;;;;;;;69.78;23.75;;;;;;;;;;5030726;28;20029;-86
2022/12/02 02:38:01;;;;;;;69.13;23.00;;;;;;;;;;5030369;28;20036;-87
2022/12/02 02:40:27;;;;;;;54.35;18.67;;;;;;;;;;5030680;28;20022;-87
2022/12/02 02:42:54;;;;;;;71.50;24.20;;;;;;;;;;5028800;28;20033;-86
2022/12/02 02:45:20;;;;;;;77.70;24.77;;;;;;;;;;5029846;28;20099;-86
2022/12/02 02:47:46;;;;;;;76.75;25.30;;;;;;;;;;5030369;28;20129;-86
2022/12/02 02:50:11;;;;;;;74.30;23.80;;;;;;;;;;5032026;28;20438;-87
2022/12/02 02:52:37;;;;;;;78.15;26.73;;;;;;;;;;5030405;28;20025;-87
2022/12/02 02:55:03;;;;;;;74.05;23.52;;;;;;;;;;5030832;28;20071;-86
2022/12/02 02:57:28;;;;;;;81.13;24.77;;;;;;;;;;5029824;28;20388;-87
2022/12/02 02:59:54;;;;;;;77.15;22.98;;;;;;;;;;5030372;28;20021;-86
2022/12/02 03:02:20;;;;;;;76.22;25.42;;;;;;;;;;5022322;28;20339;-86
2022/12/02 03:04:45;;;;;;;70.97;23.67;;;;;;;;;;5030540;28;20112;-86
2022/12/02 03:07:11;;;;;;;81.32;24.52;;;;;;;;;;5030428;28;20104;-86
2022/12/02 03:09:37;;;;;;;69.07;23.55;;;;;;;;;;5031605;28;20021;-87
2022/12/02 03:12:03;;;;;;;66.60;21.50;;;;;;;;;;5030206;28;20032;-87
2022/12/02 03:14:28;;;;;;;67.75;22.50;;;;;;;;;;5030269;28;20022;-86
2022/12/02 03:16:54;;;;;;;58.50;20.95;;;;;;;;;;5032897;28;20461;-87
2022/12/02 03:19:19;;;;;;;69.22;23.80;;;;;;;;;;5020092;28;20022;-87
2022/12/02 03:21:45;;;;;;;66.72;23.92;;;;;;;;;;5033492;28;20026;-87
2022/12/02 03:24:10;;;;;;;68.32;22.23;;;;;;;;;;5033252;28;20018;-87
2022/12/02 03:26:36;;;;;;;63.08;21.83;;;;;;;;;;5035052;28;20067;-87
2022/12/02 03:29:02;;;;;;;51.80;19.58;;;;;;;;;;5033980;28;20044;-87
2022/12/02 03:31:27;;;;;;;64.93;20.63;;;;;;;;;;5033990;28;20025;-87
2022/12/02 03:33:53;;;;;;;74.45;23.88;;;;;;;;;;5033882;28;20527;-87
2022/12/02 03:36:19;;;;;;;58.92;20.73;;;;;;;;;;5021428;28;20014;-87
2022/12/02 03:38:44;;;;;;;68.07;22.52;;;;;;;;;;5034592;28;20045;-87
2022/12/02 03:41:10;;;;;;;64.30;23.20;;;;;;;;;;5033784;28;20358;-87
2022/12/02 03:43:35;;;;;;;63.08;22.98;;;;;;;;;;5032949;28;20021;-87
2022/12/02 03:46:01;;;;;;;66.95;22.23;;;;;;;;;;5033398;28;20021;-87
2022/12/02 03:48:27;;;;;;;64.72;22.58;;;;;;;;;;5034507;28;20485;-87
2022/12/02 03:50:53;;;;;;;63.58;21.48;;;;;;;;;;5033540;28;20032;-86
2022/12/02 03:53:19;;;;;;;68.15;25.50;;;;;;;;;;5033429;28;20421;-86
2022/12/02 03:55:44;;;;;;;70.47;25.02;;;;;;;;;;5033553;28;20013;-87
2022/12/02 03:58:10;;;;;;;72.80;23.58;;;;;;;;;;5033436;28;20112;-87
2022/12/02 04:00:35;;;;;;;73.38;23.75;;;;;;;;;;5033530;28;20020;-87
2022/12/02 04:03:01;;;;;;;72.22;25.23;;;;;;;;;;5032470;28;20083;-87
2022/12/02 04:05:26;;;;;;;63.72;19.70;;;;;;;;;;5033392;28;20068;-87
2022/12/02 04:07:51;;;;;;;69.85;24.05;;;;;;;;;;5033343;28;20029;-87
2022/12/02 04:10:17;;;;;;;68.00;24.75;;;;;;;;;;5033446;28;20080;-87
2022/12/02 04:12:42;;;;;;;68.70;24.73;;;;;;;;;;5032833;28;20022;-87
2022/12/02 04:15:07;;;;;;;70.95;24.40;;;;;;;;;;5034732;28;20097;-87
2022/12/02 04:17:32;;;;;;;60.88;22.90;;;;;;;;;;5031672;28;20173;-87
2022/12/02 04:19:57;;;;;;;65.95;22.45;;;;;;;;;;5033172;28;20022;-87
2022/12/02 04:22:23;;;;;;;73.45;23.30;;;;;;;;;;5032081;28;20073;-87
2022/12/02 04:24:48;;;;;;;75.35;23.45;;;;;;;;;;5032215;28;20599;-88
2022/12/02 04:27:13;;;;;;;73.45;25.25;;;;;;;;;;5031985;28;20431;-87
2022/12/02 04:29:38;;;;;;;74.53;24.55;;;;;;;;;;5032774;28;20101;-87
2022/12/02 04:32:04;;;;;;;71.75;24.08;;;;;;;;;;5033508;28;20028;-87
2022/12/02 04:34:29;;;;;;;73.40;23.90;;;;;;;;;;5032714;28;20477;-86
2022/12/02 04:36:54;;;;;;;78.10;24.35;;;;;;;;;;5032840;28;20029;-87
2022/12/02 04:39:19;;;;;;;67.18;21.88;;;;;;;;;;5034234;28;20013;-87
2022/12/02 04:41:44;;;;;;;85.93;24.65;;;;;;;;;;5033872;28;20009;-87
2022/12/02 04:44:10;;;;;;;79.40;22.58;;;;;;;;;;5032485;28;20021;-86
2022/12/02 04:46:35;;;;;;;63.38;21.58;;;;;;;;;;5033815;28;20638;-88
2022/12/02 04:49:00;;;;;;;62.28;21.27;;;;;;;;;;5033931;28;20029;-87
2022/12/02 04:51:25;;;;;;;70.25;22.65;;;;;;;;;;5033878;28;20022;-87
2022/12/02 04:53:50;;;;;;;83.35;25.30;;;;;;;;;;5032482;28;20108;-87
2022/12/02 04:56:15;;;;;;;70.50;23.75;;;;;;;;;;5032229;28;20029;-87
2022/12/02 04:58:41;;;;;;;71.72;23.23;;;;;;;;;;5032169;28;20374;-87
2022/12/02 05:01:06;;;;;;;81.18;25.15;;;;;;;;;;5032466;28;20025;-87
2022/12/02 05:03:31;;;;;;;74.85;23.90;;;;;;;;;;5030953;28;20049;-87
2022/12/02 05:05:56;;;;;;;68.35;20.77;;;;;;;;;;5028423;28;20117;-87
2022/12/02 05:08:21;;;;;;;64.45;20.70;;;;;;;;;;5026615;28;20033;-87
2022/12/02 05:10:47;;;;;;;71.22;23.73;;;;;;;;;;5032100;28;20026;-87
2022/12/02 05:13:12;;;;;;;74.90;24.30;;;;;;;;;;5033286;28;20400;-87
2022/12/02 05:15:37;;;;;;;64.25;23.58;;;;;;;;;;5031977;28;20075;-88
2022/12/02 05:18:02;;;;;;;67.72;20.60;;;;;;;;;;5031978;28;20093;-88
2022/12/02 05:20:28;;;;;;;74.80;23.83;;;;;;;;;;5032236;28;20021;-87
2022/12/02 05:22:53;;;;;;;68.13;23.42;;;;;;;;;;5030966;28;20491;-87
2022/12/02 05:25:18;;;;;;;68.40;22.65;;;;;;;;;;5032223;28;20025;-87
2022/12/02 05:27:43;;;;;;;71.50;24.30;;;;;;;;;;5031227;28;20037;-87
2022/12/02 05:30:10;;;;;;;75.82;22.45;;;;;;;;;;5032167;28;20017;-87
2022/12/02 05:32:35;;;;;;;66.30;23.25;;;;;;;;;;5031532;28;20041;-87
2022/12/02 05:35:00;;;;;;;62.33;20.83;;;;;;;;;;5031531;28;20109;-87
2022/12/02 05:37:25;;;;;;;67.10;22.88;;;;;;;;;;5032653;28;20025;-87
2022/12/02 05:39:52;;;;;;;66.40;21.83;;;;;;;;;;5030727;28;20045;-87
2022/12/02 05:42:17;;;;;;;70.20;22.15;;;;;;;;;;5032914;28;20033;-87
2022/12/02 05:44:42;;;;;;;62.03;18.85;;;;;;;;;;5029058;28;20415;-87
2022/12/02 05:47:15;;;;;;;61.67;19.20;;;;;;;;;;5019246;28;20021;-87
2022/12/02 05:49:41;;;;;;;55.90;18.08;;;;;;;;;;5031628;28;20025;-87
2022/12/02 05:52:27;;;;;;;56.47;19.83;;;;;;;;;;5031344;28;20067;-86
2022/12/02 05:54:53;;;;;;;50.30;16.80;;;;;;;;;;5032558;28;20021;-87
2022/12/02 05:57:23;;;;;;;51.90;18.52;;;;;;;;;;5030955;28;20342;-87
2022/12/02 05:59:49;;;;;;;58.15;19.98;;;;;;;;;;5031449;28;20032;-86
2022/12/02 06:02:20;;;;;;;58.83;18.27;;;;;;;;;;5031265;28;20005;-87
2022/12/02 06:04:46;;;;;;;46.70;16.92;;;;;;;;;;5046543;28;20537;-87
2022/12/02 06:07:12;;;;;;;58.25;20.83;;;;;;;;;;5031200;28;20068;-87
2022/12/02 06:09:37;;;;;;;57.58;18.77;;;;;;;;;;5031149;28;20056;-87
2022/12/02 06:12:10;;;;;;;60.28;19.77;;;;;;;;;;5031106;28;20029;-87
2022/12/02 06:14:35;;;;;;;56.10;19.13;;;;;;;;;;5031967;28;20037;-87
2022/12/02 06:17:12;;;;;;;50.63;17.55;;;;;;;;;;5028496;28;20033;-87
2022/12/02 06:19:37;;;;;;;47.78;17.75;;;;;;;;;;5030372;28;20013;-87
2022/12/02 06:22:02;;;;;;;55.97;19.48;;;;;;;;;;5029301;28;20018;-88
2022/12/02 06:24:29;;;;;;;50.95;17.80;;;;;;;;;;5030603;28;20017;-87
2022/12/02 06:26:57;;;;;;;57.42;19.88;;;;;;;;;;5030680;28;20021;-87
2022/12/02 06:29:22;;;;;;;58.05;18.77;;;;;;;;;;5030118;28;20460;-87
2022/12/02 06:31:47;;;;;;;56.78;20.50;;;;;;;;;;5031744;28;20017;-87
2022/12/02 06:34:31;;;;;;;48.85;17.38;;;;;;;;;;5031294;28;20376;-86
2022/12/02 06:36:57;;;;;;;55.63;19.42;;;;;;;;;;5035815;28;20037;-87
2022/12/02 06:39:23;;;;;;;58.80;19.23;;;;;;;;;;5030249;28;20068;-88
2022/12/02 06:41:49;;;;;;;59.33;18.70;;;;;;;;;;5031760;28;20025;-87
2022/12/02 06:47:41;;;;;;;61.53;19.77;;;;;;;;;;5026056;28;20028;-87
2022/12/02 06:50:06;;;;;;;57.22;19.40;;;;;;;;;;5042963;28;20468;-87
2022/12/02 06:52:36;;;;;;;56.47;18.65;;;;;;;;;;5039500;28;20021;-87
2022/12/02 06:55:02;;;;;;;51.70;18.45;;;;;;;;;;5033957;28;20021;-87
2022/12/02 06:57:30;;;;;;;55.72;20.25;;;;;;;;;;5031086;28;20060;-87
2022/12/02 06:59:56;;;;;;;56.80;18.52;;;;;;;;;;5034834;28;20064;-87
2022/12/02 07:02:26;;;;;;;59.40;18.00;;;;;;;;;;5034881;28;20017;-89
2022/12/02 07:04:51;;;;;;;43.00;13.75;;;;;;;;;;5034742;28;20071;-88
2022/12/02 07:07:19;;;;;;;42.97;14.57;;;;;;;;;;5030712;28;20424;-89
2022/12/02 07:09:46;;;;;;;52.70;14.93;;;;;;;;;;5034079;28;20516;-89
2022/12/02 07:12:14;;;;;;;42.53;14.50;;;;;;;;;;5034024;28;20044;-86
2022/12/02 07:14:42;;;;;;;48.53;16.17;;;;;;;;;;5034453;28;20124;-89
2022/12/02 07:17:34;;;;;;;53.35;15.65;;;;;;;;;;5024982;28;20038;-88
2022/12/02 07:19:59;;;;;;;51.20;16.40;;;;;;;;;;5043190;28;20063;-88
2022/12/02 07:22:33;;;;;;;47.67;16.30;;;;;;;;;;5032490;28;20057;-88
2022/12/02 07:25:08;;;;;;;51.15;15.77;;;;;;;;;;5033662;28;20010;-88
2022/12/02 07:27:34;;;;;;;54.25;16.48;;;;;;;;;;5032265;28;20102;-89
2022/12/02 07:30:00;;;;;;;57.00;17.88;;;;;;;;;;5033471;28;20017;-89
2022/12/02 07:32:25;;;;;;;38.85;12.68;;;;;;;;;;5029582;28;20448;-89
2022/12/02 07:34:51;;;;;;;56.35;17.35;;;;;;;;;;5046515;28;20056;-88
2022/12/02 07:37:16;;;;;;;52.78;15.70;;;;;;;;;;5034263;28;20068;-89
2022/12/02 07:39:41;;;;;;;45.83;15.75;;;;;;;;;;5033375;28;20044;-88
2022/12/02 07:42:06;;;;;;;42.20;14.30;;;;;;;;;;5033705;28;20063;-89
2022/12/02 07:44:32;;;;;;;51.70;16.35;;;;;;;;;;5033906;28;20029;-88
2022/12/02 07:46:57;;;;;;;45.03;15.85;;;;;;;;;;5034046;28;20029;-88
2022/12/02 07:49:22;;;;;;;45.38;15.07;;;;;;;;;;5037306;28;20094;-89
2022/12/02 07:51:48;;;;;;;45.67;15.52;;;;;;;;;;5032381;28;20112;-89
2022/12/02 07:54:13;;;;;;;47.05;15.40;;;;;;;;;;5033229;28;20472;-90
2022/12/02 07:56:38;;;;;;;44.70;16.48;;;;;;;;;;5033775;28;20017;-88
2022/12/02 07:59:03;;;;;;;45.47;15.90;;;;;;;;;;5033653;28;20028;-88
2022/12/02 08:01:28;;;;;;;50.03;15.70;;;;;;;;;;5032905;28;20026;-88
2022/12/02 08:03:54;;;;;;;50.72;15.60;;;;;;;;;;5033803;28;20593;-90
2022/12/02 08:06:19;;;;;;;45.75;15.50;;;;;;;;;;5033765;28;20017;-90
2022/12/02 08:08:44;;;;;;;50.45;15.88;;;;;;;;;;5034109;28;20469;-91
2022/12/02 08:11:09;;;;;;;49.60;16.38;;;;;;;;;;5031148;28;20457;-91
2022/12/02 08:13:34;;;;;;;44.85;16.83;;;;;;;;;;5031065;28;20022;-90
2022/12/02 08:16:00;;;;;;;52.90;16.38;;;;;;;;;;5030442;28;20041;-90
2022/12/02 08:18:25;;;;;;;42.65;14.13;;;;;;;;;;5031752;28;20052;-90
2022/12/02 08:20:50;;;;;;;57.00;17.80;;;;;;;;;;5027043;28;20108;-90
2022/12/02 08:23:15;;;;;;;41.47;15.85;;;;;;;;;;5031501;28;20039;-90
2022/12/02 08:25:40;;;;;;;45.72;16.95;;;;;;;;;;5032465;28;20238;-90
2022/12/02 08:28:06;;;;;;;50.92;16.85;;;;;;;;;;5030690;28;20029;-90
2022/12/02 08:30:31;;;;;;;47.88;15.93;;;;;;;;;;5021854;28;20036;-90
2022/12/02 08:32:56;;;;;;;46.70;16.35;;;;;;;;;;5033070;28;20111;-91
2022/12/02 08:35:21;;;;;;;47.72;17.75;;;;;;;;;;5033094;28;20043;-91
2022/12/02 08:37:47;;;;;;;52.35;16.52;;;;;;;;;;5033369;28;20457;-90
2022/12/02 08:40:12;;;;;;;46.47;16.17;;;;;;;;;;5033589;28;20013;-90
2022/12/02 08:42:37;;;;;;;49.63;16.07;;;;;;;;;;5033342;28;20021;-90
2022/12/02 08:45:03;;;;;;;42.88;14.35;;;;;;;;;;5033364;28;20052;-91
2022/12/02 08:47:28;;;;;;;55.05;16.13;;;;;;;;;;5033211;28;20499;-91
2022/12/02 08:49:53;;;;;;;42.92;15.43;;;;;;;;;;5028579;28;20029;-91
2022/12/02 08:52:18;;;;;;;48.05;14.32;;;;;;;;;;5033125;28;20032;-90
2022/12/02 08:54:44;;;;;;;46.17;14.85;;;;;;;;;;5033098;28;20477;-90
2022/12/02 08:57:10;;;;;;;45.67;15.32;;;;;;;;;;5032667;28;20025;-90
2022/12/02 08:59:35;;;;;;;43.42;14.50;;;;;;;;;;5030633;28;20021;-90
2022/12/02 09:02:00;;;;;;;48.58;15.77;;;;;;;;;;5033048;28;20322;-90
2022/12/02 09:04:25;;;;;;;43.42;13.88;;;;;;;;;;5033105;28;20021;-89
2022/12/02 09:06:50;;;;;;;39.35;14.70;;;;;;;;;;5031134;28;20057;-90
2022/12/02 09:09:16;;;;;;;49.70;14.40;;;;;;;;;;5021242;28;20116;-90
2022/12/02 09:11:41;;;;;;;44.88;14.65;;;;;;;;;;5026188;28;20055;-90
2022/12/02 09:14:06;;;;;;;44.70;13.57;;;;;;;;;;5022807;28;20017;-86
2022/12/02 09:16:31;;;;;;;42.60;14.00;;;;;;;;;;5032427;28;20033;-89
2022/12/02 09:18:57;;;;;;;44.10;13.38;;;;;;;;;;5027872;28;20107;-89
2022/12/02 09:21:22;;;;;;;44.63;14.10;;;;;;;;;;5032222;28;20013;-88
2022/12/02 09:23:47;;;;;;;41.47;15.40;;;;;;;;;;5032163;28;20018;-87
2022/12/02 09:26:12;;;;;;;40.65;13.45;;;;;;;;;;5031760;28;20016;-88
2022/12/02 09:28:38;;;;;;;46.42;13.70;;;;;;;;;;5032792;28;20028;-88
2022/12/02 09:31:03;;;;;;;35.25;11.77;;;;;;;;;;5025564;28;20465;-88
2022/12/02 09:33:28;;;;;;;36.47;12.32;;;;;;;;;;5031720;28;20079;-91
2022/12/02 09:35:53;;;;;;;42.20;14.50;;;;;;;;;;5049298;28;20025;-92
2022/12/02 09:38:18;;;;;;;41.20;14.27;;;;;;;;;;5032012;28;20067;-89
2022/12/02 09:40:44;;;;;;;39.95;12.93;;;;;;;;;;5032066;28;20028;-89
2022/12/02 09:43:09;;;;;;;40.45;13.95;;;;;;;;;;5031860;28;20021;-89
2022/12/02 09:45:34;;;;;;;40.45;14.32;;;;;;;;;;5032146;28;20116;-89
2022/12/02 09:48:00;;;;;;;49.15;14.30;;;;;;;;;;5028143;28;20033;-89
2022/12/02 09:50:26;;;;;;;42.63;13.90;;;;;;;;;;5032181;28;20496;-89
2022/12/02 09:52:51;;;;;;;32.47;11.60;;;;;;;;;;5031581;28;20116;-89
2022/12/02 09:55:17;;;;;;;36.20;13.05;;;;;;;;;;5047192;28;20018;-89
2022/12/02 09:57:43;;;;;;;40.85;13.40;;;;;;;;;;5032867;28;20136;-89
2022/12/02 10:00:13;;;;;;;35.65;12.40;;;;;;;;;;5026505;28;20091;-89
2022/12/02 10:02:39;;;;;;;34.55;12.15;;;;;;;;;;5031750;28;20028;-89
2022/12/02 10:05:21;;;;;;;39.22;13.52;;;;;;;;;;5031787;28;20079;-89
2022/12/02 10:07:47;;;;;;;35.20;12.75;;;;;;;;;;5025929;28;20044;-89
2022/12/02 10:10:15;;;;;;;39.83;13.10;;;;;;;;;;5044190;28;20033;-89
2022/12/02 10:12:40;;;;;;;41.58;13.48;;;;;;;;;;5031308;28;20036;-89
2022/12/02 10:15:06;;;;;;;35.47;11.82;;;;;;;;;;5030556;28;20021;-88
2022/12/02 10:17:31;;;;;;;32.10;10.40;;;;;;;;;;5031116;28;20049;-89
2022/12/02 10:19:57;;;;;;;34.20;12.98;;;;;;;;;;5030040;28;20025;-88
2022/12/02 10:22:22;;;;;;;31.10;11.13;;;;;;;;;;5031348;28;20025;-89
2022/12/02 10:24:48;;;;;;;37.35;13.75;;;;;;;;;;5030697;28;20013;-87
2022/12/02 10:27:23;;;;;;;30.98;11.80;;;;;;;;;;5039302;28;20034;-87
2022/12/02 10:29:49;;;;;;;42.22;12.93;;;;;;;;;;5028970;28;20028;-88
2022/12/02 10:32:21;;;;;;;31.73;12.27;;;;;;;;;;5032704;28;20017;-88
2022/12/02 10:35:02;;;;;;;28.33;11.10;;;;;;;;;;5032520;28;20021;-88
2022/12/02 10:37:27;;;;;;;35.05;11.95;;;;;;;;;;5047844;28;20025;-89
2022/12/02 10:40:08;;;;;;;31.52;12.05;;;;;;;;;;5031320;28;20500;-88
2022/12/02 10:42:34;;;;;;;32.47;10.98;;;;;;;;;;5047749;28;20438;-88
2022/12/02 10:45:17;;;;;;;28.38;8.48;;;;;;;;;;5029896;28;20044;-89
2022/12/02 10:47:42;;;;;;;28.17;10.80;;;;;;;;;;5031381;28;20025;-89
2022/12/02 10:50:15;;;;;;;34.30;11.63;;;;;;;;;;5025897;28;20076;-88
2022/12/02 10:52:45;;;;;;;27.50;10.00;;;;;;;;;;5031245;28;20057;-89
2022/12/02 10:55:11;;;;;;;32.83;10.57;;;;;;;;;;5030597;28;20108;-89
2022/12/02 10:57:37;;;;;;;35.22;11.13;;;;;;;;;;5030609;28;20026;-89
2022/12/02 11:00:07;;;;;;;27.48;8.70;;;;;;;;;;5031036;28;20666;-88
2022/12/02 11:02:32;;;;;;;30.20;10.93;;;;;;;;;;5030899;28;20021;-88
2022/12/02 11:05:16;;;;;;;28.67;10.32;;;;;;;;;;5046179;28;20014;-89
2022/12/02 11:07:49;;;;;;;27.80;10.43;;;;;;;;;;5033217;28;20125;-88
2022/12/02 11:10:19;;;;;;;31.92;10.80;;;;;;;;;;5015846;28;20038;-89
2022/12/02 11:12:46;;;;;;;23.15;8.73;;;;;;;;;;5030820;28;20029;-89
2022/12/02 11:15:30;;;;;;;31.20;10.70;;;;;;;;;;5032189;28;20469;-88
2022/12/02 11:17:56;;;;;;;26.92;9.73;;;;;;;;;;5025928;28;20412;-89
2022/12/02 11:20:38;;;;;;;35.95;10.10;;;;;;;;;;5030666;28;20021;-89
2022/12/02 11:23:07;;;;;;;23.65;8.48;;;;;;;;;;5028638;28;20013;-89
2022/12/02 11:25:42;;;;;;;28.23;9.70;;;;;;;;;;5027075;28;20029;-88
2022/12/02 11:28:13;;;;;;;22.58;8.60;;;;;;;;;;5047131;28;20374;-89
2022/12/02 11:30:38;;;;;;;20.45;7.00;;;;;;;;;;5030460;28;20025;-89
2022/12/02 11:33:08;;;;;;;23.33;9.00;;;;;;;;;;5047331;28;20095;-89
2022/12/02 11:35:52;;;;;;;21.58;8.50;;;;;;;;;;5032351;28;20021;-89
2022/12/02 11:38:18;;;;;;;27.48;9.85;;;;;;;;;;5033895;28;20025;-89
2022/12/02 11:40:43;;;;;;;24.38;9.55;;;;;;;;;;5034754;28;20014;-89
2022/12/02 11:43:27;;;;;;;23.65;9.13;;;;;;;;;;5050701;28;20506;-89
2022/12/02 11:45:55;;;;;;;23.63;8.45;;;;;;;;;;5033522;28;20034;-89
2022/12/02 11:48:20;;;;;;;24.15;9.30;;;;;;;;;;5035416;28;20037;-89
2022/12/02 11:50:46;;;;;;;24.48;8.30;;;;;;;;;;5050857;28;20021;-88
2022/12/02 11:53:18;;;;;;;29.20;9.23;;;;;;;;;;5043135;28;20525;-89
2022/12/02 11:55:48;;;;;;;36.70;10.82;;;;;;;;;;5051063;28;20040;-89
2022/12/02 11:58:22;;;;;;;29.75;10.18;;;;;;;;;;5034376;28;20068;-88
2022/12/02 12:01:02;;;;;;;31.35;10.05;;;;;;;;;;5024736;28;20411;-88
2022/12/02 12:03:28;;;;;;;31.00;10.23;;;;;;;;;;5031622;28;20120;-89
2022/12/02 12:06:07;;;;;;;33.00;11.50;;;;;;;;;;5035210;28;20469;-89
2022/12/02 12:08:32;;;;;;;39.70;10.93;;;;;;;;;;5046074;28;20538;-88
2022/12/02 12:11:16;;;;;;;33.80;10.20;;;;;;;;;;5031888;28;20022;-89
2022/12/02 12:14:00;;;;;;;27.23;10.40;;;;;;;;;;5046028;28;20132;-89
2022/12/02 12:16:26;;;;;;;33.10;10.45;;;;;;;;;;5037031;28;20076;-89
2022/12/02 12:18:52;;;;;;;32.25;11.32;;;;;;;;;;5033208;28;20052;-88
2022/12/02 12:21:29;;;;;;;32.17;11.35;;;;;;;;;;5019420;28;20385;-88
2022/12/02 12:23:54;;;;;;;32.42;11.63;;;;;;;;;;5039951;28;20022;-89
2022/12/02 12:26:32;;;;;;;35.15;11.45;;;;;;;;;;5032759;28;20480;-88
2022/12/02 12:29:02;;;;;;;38.38;12.50;;;;;;;;;;5033119;28;20021;-89
2022/12/02 12:31:27;;;;;;;35.13;11.57;;;;;;;;;;5033996;28;20151;-89
2022/12/02 12:33:53;;;;;;;31.25;10.25;;;;;;;;;;5031975;28;20146;-89
2022/12/02 12:36:19;;;;;;;27.20;8.45;;;;;;;;;;5033224;28;20039;-87
2022/12/02 12:38:44;;;;;;;29.58;10.43;;;;;;;;;;5048859;28;20039;-84
2022/12/02 12:41:09;;;;;;;31.38;10.50;;;;;;;;;;5032590;28;20354;-86
2022/12/02 12:43:34;;;;;;;32.88;10.60;;;;;;;;;;5048905;28;20021;-86
2022/12/02 12:45:59;;;;;;;45.90;10.93;;;;;;;;;;5029344;28;20029;-87
2022/12/02 12:48:24;;;;;;;24.70;9.20;;;;;;;;;;5031326;28;20029;-86
2022/12/02 12:50:50;;;;;;;43.30;12.73;;;;;;;;;;5049068;28;20025;-86
2022/12/02 12:53:15;;;;;;;28.08;10.65;;;;;;;;;;5032836;28;20550;-86
2022/12/02 12:55:40;;;;;;;46.22;11.80;;;;;;;;;;5030859;28;20025;-86
2022/12/02 12:58:05;;;;;;;48.65;13.00;;;;;;;;;;5032173;28;20031;-87
2022/12/02 13:00:30;;;;;;;40.40;12.82;;;;;;;;;;5030877;28;20033;-87
2022/12/02 13:02:56;;;;;;;41.35;11.18;;;;;;;;;;5031491;28;20021;-87
2022/12/02 13:05:21;;;;;;;48.53;14.10;;;;;;;;;;5027838;28;20053;-85
2022/12/02 13:07:46;;;;;;;43.13;12.73;;;;;;;;;;5027885;28;20064;-86
2022/12/02 13:10:12;;;;;;;33.38;10.18;;;;;;;;;;5044356;28;20040;-86
2022/12/02 13:12:37;;;;;;;37.42;11.27;;;;;;;;;;5031244;28;20022;-86
2022/12/02 13:15:02;;;;;;;34.80;10.90;;;;;;;;;;5031912;28;20025;-86
2022/12/02 13:17:27;;;;;;;41.95;11.68;;;;;;;;;;5031626;28;20030;-86
2022/12/02 13:19:53;;;;;;;36.45;11.85;;;;;;;;;;5031227;28;20409;-86
2022/12/02 13:22:18;;;;;;;34.95;10.88;;;;;;;;;;5030954;28;20108;-85
2022/12/02 13:24:43;;;;;;;38.17;11.77;;;;;;;;;;5031561;28;20024;-86
2022/12/02 13:27:08;;;;;;;39.45;12.05;;;;;;;;;;5031479;28;20472;-86
2022/12/02 13:29:33;;;;;;;42.88;13.25;;;;;;;;;;5031315;28;20480;-86
2022/12/02 13:31:59;;;;;;;38.25;10.18;;;;;;;;;;5031168;28;20024;-86
2022/12/02 13:34:24;;;;;;;43.40;12.70;;;;;;;;;;5031253;28;20031;-86
2022/12/02 13:36:49;;;;;;;52.08;13.02;;;;;;;;;;5028327;28;20164;-86
2022/12/02 13:39:14;;;;;;;35.67;12.02;;;;;;;;;;5024522;28;20384;-86
2022/12/02 13:41:39;;;;;;;39.33;10.93;;;;;;;;;;5030674;28;20021;-85
2022/12/02 13:44:05;;;;;;;35.28;11.05;;;;;;;;;;5031474;28;20044;-87
2022/12/02 13:46:30;;;;;;;48.05;11.90;;;;;;;;;;5022033;28;20379;-86
2022/12/02 13:48:55;;;;;;;30.38;8.40;;;;;;;;;;5031278;28;20021;-86
2022/12/02 13:51:21;;;;;;;36.05;11.60;;;;;;;;;;5031211;28;20032;-86
2022/12/02 13:53:46;;;;;;;35.20;11.50;;;;;;;;;;5031389;28;20037;-86
2022/12/02 13:56:11;;;;;;;30.38;10.00;;;;;;;;;;5032385;28;20036;-87
2022/12/02 13:58:36;;;;;;;23.52;9.70;;;;;;;;;;5030768;28;20021;-86
2022/12/02 14:01:02;;;;;;;29.35;11.25;;;;;;;;;;5028367;28;20017;-86
2022/12/02 14:03:27;;;;;;;36.20;10.50;;;;;;;;;;5031334;28;20132;-87
2022/12/02 14:05:52;;;;;;;32.72;10.98;;;;;;;;;;5031317;28;20029;-86
2022/12/02 14:08:17;;;;;;;34.25;11.43;;;;;;;;;;5032495;28;20101;-86
2022/12/02 14:10:42;;;;;;;28.40;10.80;;;;;;;;;;5030642;28;20032;-85
2022/12/02 14:13:08;;;;;;;29.63;10.88;;;;;;;;;;5032055;28;20063;-86
2022/12/02 14:15:33;;;;;;;22.23;8.43;;;;;;;;;;5026750;28;20553;-86
2022/12/02 14:17:59;;;;;;;28.98;10.32;;;;;;;;;;5027256;28;20100;-86
2022/12/02 14:20:25;;;;;;;33.78;11.13;;;;;;;;;;5021983;28;20033;-86
2022/12/02 14:22:50;;;;;;;31.50;11.43;;;;;;;;;;5029469;28;20029;-86
2022/12/02 14:25:15;;;;;;;43.45;12.43;;;;;;;;;;5015432;28;20090;-86